Time;durP1;ratioP1;P1;durP2;ratioP2;P2;SDS_P1;SDS_P2;PMS_P1;PMS_P2;Temp;Humidity;BMP_temperature;BMP_pressure;BME280_temperature;BME280_humidity;BME280_pressure;Samples;Min_cycle;Max_cycle;Signal;HPM_P1;HPM_P2
2020/12/13 00:01:01;;;;;;;7.38;6.30;;;;;;;8.63;78.19;97869.59;5095767;28;20052;-67
2020/12/13 00:03:28;;;;;;;11.80;6.75;;;;;;;8.68;77.95;97869.78;5094799;28;20039;-68
2020/12/13 00:05:56;;;;;;;8.30;6.57;;;;;;;8.69;78.06;97879.31;5095026;28;20044;-68
2020/12/13 00:08:23;;;;;;;13.23;6.60;;;;;;;8.65;77.94;97878.09;5094806;28;20040;-68
2020/12/13 00:10:49;;;;;;;8.30;6.68;;;;;;;8.68;78.11;97885.59;5094727;28;20566;-68
2020/12/13 00:13:16;;;;;;;9.05;7.43;;;;;;;8.72;78.27;97893.91;5094778;28;20481;-68
2020/12/13 00:15:43;;;;;;;8.75;6.20;;;;;;;8.72;77.81;97893.91;5094663;28;20047;-68
2020/12/13 00:18:10;;;;;;;8.10;6.82;;;;;;;8.73;78.09;97892.91;5094719;28;20055;-69
2020/12/13 00:20:37;;;;;;;10.75;6.78;;;;;;;8.71;77.98;97897.56;5094751;28;20119;-68
2020/12/13 00:23:05;;;;;;;9.55;7.25;;;;;;;8.72;77.87;97899.19;5093391;28;20113;-68
2020/12/13 00:25:32;;;;;;;7.85;6.82;;;;;;;8.73;78.14;97900.81;5092912;28;20132;-69
2020/12/13 00:27:58;;;;;;;10.05;7.30;;;;;;;8.71;78.16;97902.84;5093299;28;20032;-68
2020/12/13 00:30:25;;;;;;;9.00;7.43;;;;;;;8.75;78.04;97904.06;5094542;28;20051;-68
2020/12/13 00:32:53;;;;;;;9.35;7.93;;;;;;;8.75;77.81;97901.44;5094179;28;20036;-68
2020/12/13 00:35:20;;;;;;;10.40;8.07;;;;;;;8.79;77.68;97900.00;5092899;28;20044;-68
2020/12/13 00:37:47;;;;;;;10.70;8.32;;;;;;;8.78;77.98;97904.47;5094303;28;20083;-68
2020/12/13 00:40:15;;;;;;;13.15;9.30;;;;;;;8.79;77.92;97905.28;5094532;28;20074;-68
2020/12/13 00:42:41;;;;;;;10.80;9.38;;;;;;;8.75;77.84;97907.50;5092996;28;20051;-68
2020/12/13 00:45:09;;;;;;;11.07;9.70;;;;;;;8.75;77.41;97914.59;5093911;28;20047;-68
2020/12/13 00:47:36;;;;;;;13.63;10.00;;;;;;;8.71;77.45;97910.75;5093049;28;20093;-68
2020/12/13 00:50:04;;;;;;;12.88;10.07;;;;;;;8.65;77.93;97913.19;5092969;28;20079;-68
2020/12/13 00:52:31;;;;;;;12.88;10.82;;;;;;;8.70;77.72;97909.13;5094172;28;20551;-68
2020/12/13 00:54:58;;;;;;;12.93;9.82;;;;;;;8.75;77.77;97909.31;5093949;28;20464;-68
2020/12/13 00:57:27;;;;;;;11.23;10.00;;;;;;;8.78;77.97;97916.84;5092886;28;20528;-68
2020/12/13 00:59:54;;;;;;;11.93;9.70;;;;;;;8.74;77.93;97919.06;5092883;28;20043;-68
2020/12/13 01:02:21;;;;;;;11.88;9.70;;;;;;;8.76;77.92;97911.75;5092592;28;20046;-68
2020/12/13 01:04:48;;;;;;;15.15;10.50;;;;;;;8.80;77.91;97915.59;5093780;28;20040;-68
2020/12/13 01:07:15;;;;;;;13.48;10.55;;;;;;;8.81;77.53;97919.03;5094029;28;20052;-68
2020/12/13 01:09:41;;;;;;;13.75;10.68;;;;;;;8.75;77.09;97920.69;5094175;28;20055;-68
2020/12/13 01:12:08;;;;;;;12.77;10.25;;;;;;;8.52;77.72;97928.16;5094098;28;20048;-68
2020/12/13 01:14:36;;;;;;;13.60;10.02;;;;;;;8.40;78.17;97930.56;5095695;28;20048;-68
2020/12/13 01:17:02;;;;;;;11.82;10.50;;;;;;;8.34;78.47;97934.78;5095661;28;20398;-68
2020/12/13 01:19:30;;;;;;;13.07;10.23;;;;;;;8.31;78.75;97939.63;5097595;28;20048;-68
2020/12/13 01:21:56;;;;;;;12.80;9.52;;;;;;;8.33;78.82;97948.16;5097973;28;20040;-68
2020/12/13 01:24:24;;;;;;;11.55;9.35;;;;;;;8.31;78.94;97945.69;5096290;28;20047;-68
2020/12/13 01:26:51;;;;;;;12.18;10.30;;;;;;;8.41;78.98;97948.00;5095128;28;20465;-68
2020/12/13 01:29:18;;;;;;;11.75;9.18;;;;;;;8.50;78.86;97949.44;5093865;28;20059;-68
2020/12/13 01:31:46;;;;;;;13.27;10.05;;;;;;;8.56;78.46;97959.16;5093855;28;20052;-69
2020/12/13 01:34:12;;;;;;;12.85;9.50;;;;;;;8.59;78.29;97958.75;5093377;28;20056;-69
2020/12/13 01:36:39;;;;;;;13.25;10.43;;;;;;;8.66;78.27;97962.22;5092349;28;20490;-69
2020/12/13 01:39:06;;;;;;;14.02;10.88;;;;;;;8.63;78.15;97972.34;5093978;28;20062;-68
2020/12/13 01:41:33;;;;;;;13.05;10.45;;;;;;;8.52;78.17;97973.72;5097682;28;20050;-68
2020/12/13 01:44:03;;;;;;;13.25;10.23;;;;;;;8.49;78.42;97979.44;5098729;28;20052;-68
2020/12/13 01:46:30;;;;;;;12.98;10.57;;;;;;;8.43;78.81;97982.84;5099518;28;20036;-68
2020/12/13 01:49:02;;;;;;;15.88;10.55;;;;;;;8.42;78.63;97991.75;5098796;28;20131;-68
2020/12/13 01:51:49;;;;;;;13.90;10.48;;;;;;;8.49;78.65;97984.69;5096662;28;20040;-68
2020/12/13 01:54:16;;;;;;;13.80;10.45;;;;;;;8.47;78.91;97986.69;5093254;28;20051;-68
2020/12/13 01:56:47;;;;;;;14.25;10.18;;;;;;;8.57;78.86;97986.31;5093536;28;20032;-68
2020/12/13 01:59:17;;;;;;;13.07;9.73;;;;;;;8.61;78.53;97983.09;5093372;28;20043;-69
2020/12/13 02:01:47;;;;;;;14.73;10.68;;;;;;;8.58;78.93;97983.50;5094258;28;20044;-69
2020/12/13 02:04:20;;;;;;;13.93;10.27;;;;;;;8.53;78.73;97993.81;5091867;28;20484;-68
2020/12/13 02:06:49;;;;;;;12.18;10.15;;;;;;;8.55;78.52;97996.25;5092127;28;20093;-69
2020/12/13 02:09:15;;;;;;;12.02;10.02;;;;;;;8.58;78.98;97987.94;5093174;28;20051;-68
2020/12/13 02:11:42;;;;;;;14.90;9.60;;;;;;;8.56;78.83;97996.03;5093028;28;20054;-69
2020/12/13 02:14:09;;;;;;;12.15;9.30;;;;;;;8.54;78.53;97997.25;5092592;28;20043;-69
2020/12/13 02:16:35;;;;;;;11.77;9.55;;;;;;;8.57;78.71;97999.47;5092644;28;20456;-68
2020/12/13 02:19:03;;;;;;;11.82;8.88;;;;;;;8.48;78.79;98006.75;5092757;28;20122;-69
2020/12/13 02:21:31;;;;;;;12.63;9.70;;;;;;;8.46;78.73;98013.25;5091234;28;20096;-68
2020/12/13 02:23:58;;;;;;;10.63;8.93;;;;;;;8.46;78.89;98007.97;5092048;28;20409;-68
2020/12/13 02:26:25;;;;;;;10.05;8.32;;;;;;;8.43;78.73;98012.63;5092484;28;20040;-68
2020/12/13 02:28:52;;;;;;;12.60;8.98;;;;;;;8.42;79.05;98018.09;5092360;28;20040;-68
2020/12/13 02:31:19;;;;;;;11.75;8.18;;;;;;;8.36;78.79;98018.84;5092334;28;20067;-68
2020/12/13 02:33:46;;;;;;;11.20;8.05;;;;;;;8.39;79.02;98021.91;5091920;28;20451;-68
2020/12/13 02:36:13;;;;;;;10.23;9.13;;;;;;;8.33;78.82;98032.41;5092260;28;20097;-68
2020/12/13 02:38:40;;;;;;;10.40;8.00;;;;;;;8.30;78.93;98030.19;5092480;28;20067;-68
2020/12/13 02:41:07;;;;;;;11.80;9.23;;;;;;;8.28;78.93;98037.44;5092470;28;20497;-68
2020/12/13 02:43:34;;;;;;;11.95;8.30;;;;;;;8.25;79.12;98037.84;5092125;28;20513;-68
2020/12/13 02:46:01;;;;;;;9.60;7.75;;;;;;;8.21;79.29;98034.00;5090757;28;20059;-67
2020/12/13 02:48:27;;;;;;;10.70;8.45;;;;;;;8.23;79.19;98042.50;5092139;28;20048;-68
2020/12/13 02:50:54;;;;;;;11.82;8.38;;;;;;;8.22;79.11;98036.41;5090782;28;20078;-68
2020/12/13 02:53:21;;;;;;;10.25;8.23;;;;;;;8.27;79.21;98039.25;5090479;28;20047;-68
2020/12/13 02:55:47;;;;;;;13.95;9.77;;;;;;;8.24;79.24;98037.00;5092862;28;20508;-68
2020/12/13 02:58:16;;;;;;;10.02;8.40;;;;;;;8.28;79.28;98042.72;5096214;28;20040;-68
2020/12/13 03:00:42;;;;;;;10.93;7.88;;;;;;;8.23;79.36;98053.03;5094905;28;20051;-68
2020/12/13 03:03:09;;;;;;;9.13;7.50;;;;;;;8.19;79.20;98050.78;5096109;28;20445;-68
2020/12/13 03:05:36;;;;;;;10.75;7.35;;;;;;;8.23;79.47;98056.47;5095636;28;20422;-68
2020/12/13 03:08:03;;;;;;;9.30;7.78;;;;;;;8.30;79.04;98062.59;5096066;28;20048;-68
2020/12/13 03:10:29;;;;;;;8.70;7.28;;;;;;;8.28;79.13;98061.94;5094676;28;20044;-68
2020/12/13 03:12:56;;;;;;;10.00;7.10;;;;;;;8.22;78.83;98070.66;5096078;28;20041;-68
2020/12/13 03:15:24;;;;;;;10.15;7.25;;;;;;;8.20;79.22;98070.00;5094199;28;20052;-68
2020/12/13 03:17:51;;;;;;;7.15;6.45;;;;;;;8.15;79.27;98077.69;5095999;28;20052;-68
2020/12/13 03:20:18;;;;;;;10.38;7.55;;;;;;;8.14;79.28;98071.63;5095833;28;20545;-68
2020/12/13 03:22:44;;;;;;;8.30;7.22;;;;;;;8.06;79.07;98089.38;5095629;28;20040;-68
2020/12/13 03:25:11;;;;;;;7.05;6.32;;;;;;;8.06;79.42;98092.84;5095384;28;20044;-68
2020/12/13 03:27:38;;;;;;;7.93;6.22;;;;;;;8.08;79.53;98088.19;5094404;28;20047;-68
2020/12/13 03:30:04;;;;;;;9.98;7.28;;;;;;;8.08;79.18;98098.72;5095580;28;20050;-68
2020/12/13 03:32:35;;;;;;;8.90;6.85;;;;;;;8.10;79.39;98107.22;5095583;28;20489;-68
2020/12/13 03:35:03;;;;;;;8.50;6.53;;;;;;;8.05;79.46;98108.84;5093885;28;20109;-68
2020/12/13 03:37:30;;;;;;;8.52;6.78;;;;;;;7.98;79.44;98115.88;5095491;28;20047;-68
2020/12/13 03:39:57;;;;;;;10.23;7.25;;;;;;;8.00;79.51;98114.69;5095351;28;20044;-68
2020/12/13 03:42:24;;;;;;;8.75;6.40;;;;;;;8.00;79.62;98117.31;5094610;28;20048;-68
2020/12/13 03:44:51;;;;;;;7.47;6.78;;;;;;;8.03;79.46;98113.47;5095875;28;20476;-68
2020/12/13 03:47:18;;;;;;;7.50;6.45;;;;;;;8.04;79.55;98121.19;5094459;28;20051;-68
2020/12/13 03:49:45;;;;;;;7.43;6.55;;;;;;;8.06;79.28;98118.34;5095335;28;20040;-68
2020/12/13 03:52:12;;;;;;;8.60;6.18;;;;;;;8.05;79.52;98119.38;5095596;28;20383;-68
2020/12/13 03:54:38;;;;;;;6.57;5.88;;;;;;;8.09;79.30;98123.22;5093605;28;20052;-68
2020/12/13 03:57:05;;;;;;;8.80;6.43;;;;;;;8.01;79.30;98118.94;5095090;28;20043;-68
2020/12/13 03:59:32;;;;;;;7.55;6.47;;;;;;;8.08;79.60;98127.69;5095014;28;20044;-68
2020/12/13 04:01:59;;;;;;;7.03;6.32;;;;;;;8.07;79.58;98131.31;5093534;28;20063;-68
2020/12/13 04:04:26;;;;;;;7.70;6.80;;;;;;;8.09;79.32;98128.50;5094606;28;20036;-67
2020/12/13 04:06:53;;;;;;;7.93;6.80;;;;;;;8.07;79.65;98126.03;5092850;28;20052;-68
2020/12/13 04:09:20;;;;;;;10.88;7.10;;;;;;;8.09;79.50;98126.69;5094760;28;20413;-67
2020/12/13 04:11:47;;;;;;;6.95;6.25;;;;;;;8.06;79.31;98129.69;5095375;28;20044;-68
2020/12/13 04:14:14;;;;;;;9.45;7.13;;;;;;;8.07;79.39;98128.66;5094385;28;20047;-68
2020/12/13 04:16:41;;;;;;;8.23;7.00;;;;;;;8.09;79.50;98131.13;5094777;28;20054;-68
2020/12/13 04:19:08;;;;;;;7.13;6.43;;;;;;;8.07;79.45;98136.56;5094535;28;20149;-67
2020/12/13 04:21:35;;;;;;;9.35;7.80;;;;;;;8.09;79.46;98137.22;5094388;28;20048;-68
2020/12/13 04:24:03;;;;;;;11.02;7.10;;;;;;;8.02;79.26;98130.28;5094075;28;20040;-67
2020/12/13 04:26:30;;;;;;;9.85;7.15;;;;;;;8.00;79.77;98137.53;5093146;28;20105;-68
2020/12/13 04:28:56;;;;;;;8.75;7.38;;;;;;;7.97;79.49;98140.56;5094331;28;20109;-67
2020/12/13 04:31:23;;;;;;;11.85;8.20;;;;;;;7.95;79.45;98143.38;5094342;28;20043;-68
2020/12/13 04:33:49;;;;;;;9.00;7.53;;;;;;;7.99;79.92;98146.44;5094084;28;20044;-68
2020/12/13 04:36:16;;;;;;;8.23;7.43;;;;;;;7.99;79.43;98146.44;5094386;28;20051;-68
2020/12/13 04:38:43;;;;;;;10.43;7.55;;;;;;;7.94;79.72;98153.09;5094243;28;20064;-67
2020/12/13 04:41:11;;;;;;;9.02;7.28;;;;;;;7.92;79.41;98163.00;5094251;28;20059;-68
2020/12/13 04:43:39;;;;;;;8.00;7.20;;;;;;;7.99;79.64;98164.84;5092618;28;20079;-68
2020/12/13 04:46:07;;;;;;;9.43;7.70;;;;;;;8.03;79.16;98174.81;5094137;28;20079;-68
2020/12/13 04:48:34;;;;;;;8.93;6.88;;;;;;;8.05;79.33;98180.72;5094128;28;20546;-68
2020/12/13 04:51:01;;;;;;;9.73;7.57;;;;;;;7.97;79.08;98175.59;5094030;28;20051;-68
2020/12/13 04:53:29;;;;;;;7.95;6.90;;;;;;;7.95;79.22;98177.59;5092407;28;20493;-68
2020/12/13 04:55:57;;;;;;;8.18;7.05;;;;;;;8.00;79.14;98180.47;5093823;28;20054;-68
2020/12/13 04:58:26;;;;;;;9.18;7.22;;;;;;;7.99;79.24;98180.66;5093952;28;20044;-68
2020/12/13 05:00:55;;;;;;;8.40;7.05;;;;;;;8.00;79.21;98185.75;5092477;28;20502;-68
2020/12/13 05:03:23;;;;;;;8.00;7.03;;;;;;;7.99;79.22;98186.72;5093617;28;20048;-67
2020/12/13 05:05:51;;;;;;;8.05;6.65;;;;;;;7.94;79.39;98186.50;5093681;28;20044;-68
2020/12/13 05:08:18;;;;;;;8.18;7.20;;;;;;;7.91;79.11;98184.22;5093659;28;20126;-68
2020/12/13 05:10:45;;;;;;;9.35;7.40;;;;;;;7.93;79.19;98187.50;5093826;28;20055;-68
2020/12/13 05:13:11;;;;;;;8.25;7.38;;;;;;;7.94;79.25;98189.13;5093689;28;20047;-68
2020/12/13 05:15:39;;;;;;;10.48;7.97;;;;;;;7.93;79.31;98187.50;5092053;28;20051;-68
2020/12/13 05:18:06;;;;;;;9.25;8.18;;;;;;;7.91;79.66;98192.94;5092978;28;20115;-68
2020/12/13 05:20:33;;;;;;;10.35;8.82;;;;;;;7.92;79.30;98202.50;5093136;28;20048;-68
2020/12/13 05:23:01;;;;;;;9.63;8.57;;;;;;;7.88;79.30;98203.88;5093202;28;20051;-67
2020/12/13 05:25:32;;;;;;;9.60;8.57;;;;;;;7.88;79.27;98208.31;5093231;28;20075;-67
2020/12/13 05:28:02;;;;;;;12.80;8.52;;;;;;;7.80;79.42;98218.97;5093797;28;20048;-68
2020/12/13 05:30:33;;;;;;;15.30;9.45;;;;;;;7.76;79.49;98215.09;5093307;28;20528;-68
2020/12/13 05:33:05;;;;;;;10.93;8.73;;;;;;;7.76;79.66;98228.25;5093389;28;20409;-68
2020/12/13 05:35:32;;;;;;;11.02;9.30;;;;;;;7.76;79.69;98231.69;5092830;28;20036;-67
2020/12/13 05:37:59;;;;;;;10.60;8.30;;;;;;;7.71;79.66;98236.69;5093059;28;20516;-68
2020/12/13 05:40:27;;;;;;;9.45;8.15;;;;;;;7.68;79.81;98237.09;5091947;28;20048;-68
2020/12/13 05:43:01;;;;;;;11.07;8.30;;;;;;;7.69;80.04;98244.78;5093142;28;20044;-68
2020/12/13 05:45:46;;;;;;;8.73;7.68;;;;;;;7.75;80.04;98245.03;5091503;28;20048;-68
2020/12/13 05:53:37;;;;;;;8.05;7.22;;;;;;;7.74;79.91;98252.09;5090967;28;20086;-68
2020/12/13 05:56:21;;;;;;;7.47;6.68;;;;;;;7.72;79.92;98256.75;5091549;28;20180;-68
2020/12/13 05:58:50;;;;;;;7.75;6.95;;;;;;;7.74;79.88;98264.44;5092831;28;20044;-68
2020/12/13 06:01:22;;;;;;;8.77;7.13;;;;;;;7.76;79.82;98265.91;5092708;28;20055;-67
2020/12/13 06:03:51;;;;;;;7.72;6.93;;;;;;;7.74;79.61;98274.97;5092267;28;20409;-68
2020/12/13 06:06:22;;;;;;;7.18;6.38;;;;;;;7.72;79.60;98271.72;5091324;28;20048;-68
2020/12/13 06:09:13;;;;;;;8.57;7.05;;;;;;;7.74;79.62;98269.72;5092858;28;20432;-68
2020/12/13 06:11:47;;;;;;;8.93;7.47;;;;;;;7.72;79.62;98275.16;5091725;28;20405;-68
2020/12/13 06:14:18;;;;;;;10.35;6.40;;;;;;;7.71;79.52;98273.50;5090917;28;20040;-68
2020/12/13 06:16:46;;;;;;;8.82;6.68;;;;;;;7.66;79.27;98270.63;5092779;28;20043;-68
2020/12/13 06:19:15;;;;;;;10.90;7.10;;;;;;;7.64;79.10;98283.19;5091190;28;20131;-68
2020/12/13 06:21:46;;;;;;;8.18;6.93;;;;;;;7.67;79.29;98290.69;5092523;28;20032;-68
2020/12/13 06:24:13;;;;;;;7.80;6.93;;;;;;;7.62;79.14;98285.16;5092154;28;20036;-68
2020/12/13 06:26:41;;;;;;;8.55;6.60;;;;;;;7.57;79.08;98298.88;5092317;28;20179;-68
2020/12/13 06:29:08;;;;;;;7.32;6.57;;;;;;;7.53;79.09;98296.81;5091233;28;20434;-68
2020/12/13 06:31:37;;;;;;;8.68;6.57;;;;;;;7.53;79.27;98295.00;5091940;28;20102;-68
2020/12/13 06:34:05;;;;;;;9.07;7.32;;;;;;;7.57;79.34;98304.13;5091907;28;20051;-68
2020/12/13 06:36:34;;;;;;;8.98;7.75;;;;;;;7.60;79.05;98303.78;5090825;28;20067;-68
2020/12/13 06:39:05;;;;;;;9.52;7.57;;;;;;;7.64;79.14;98304.22;5092161;28;20382;-68
2020/12/13 06:41:35;;;;;;;8.82;7.40;;;;;;;7.63;78.93;98300.78;5092205;28;20062;-68
2020/12/13 06:44:06;;;;;;;11.82;7.82;;;;;;;7.63;79.22;98308.69;5091687;28;20382;-68
2020/12/13 06:46:38;;;;;;;12.18;7.68;;;;;;;7.58;78.94;98315.47;5091987;28;20412;-68
2020/12/13 06:49:06;;;;;;;11.70;7.88;;;;;;;7.62;79.11;98308.84;5092084;28;20393;-68
2020/12/13 06:51:35;;;;;;;10.02;7.85;;;;;;;7.63;79.10;98311.31;5090778;28;20072;-68
2020/12/13 06:54:04;;;;;;;11.02;7.95;;;;;;;7.68;79.05;98321.28;5091728;28;20059;-68
2020/12/13 06:56:30;;;;;;;10.25;7.85;;;;;;;7.62;78.96;98319.38;5092065;28;20044;-68
2020/12/13 06:58:59;;;;;;;11.57;7.85;;;;;;;7.58;78.74;98323.38;5091939;28;20040;-68
2020/12/13 07:01:28;;;;;;;10.73;7.25;;;;;;;7.53;78.67;98321.28;5092063;28;20120;-68
2020/12/13 07:03:58;;;;;;;10.68;7.63;;;;;;;7.53;78.47;98336.25;5091721;28;20145;-68
2020/12/13 07:06:45;;;;;;;8.27;7.13;;;;;;;7.52;78.43;98337.28;5092041;28;20514;-68
2020/12/13 07:09:13;;;;;;;8.95;7.07;;;;;;;7.61;78.71;98334.34;5091996;28;20447;-68
2020/12/13 07:11:41;;;;;;;7.25;6.47;;;;;;;7.54;78.13;98332.63;5091912;28;20490;-68
2020/12/13 07:14:11;;;;;;;7.97;5.90;;;;;;;7.51;78.02;98335.63;5091536;28;20032;-68
2020/12/13 07:16:42;;;;;;;10.70;5.75;;;;;;;7.51;77.86;98346.13;5092188;28;20071;-68
2020/12/13 07:19:12;;;;;;;9.05;6.60;;;;;;;7.52;77.86;98350.41;5091889;28;20049;-68
2020/12/13 07:21:41;;;;;;;6.10;5.40;;;;;;;7.55;77.85;98357.91;5090567;28;20048;-68
2020/12/13 07:24:09;;;;;;;11.30;5.72;;;;;;;7.51;77.50;98354.88;5090017;28;20044;-68
2020/12/13 07:26:37;;;;;;;6.88;5.25;;;;;;;7.47;77.45;98353.59;5091940;28;20067;-68
2020/12/13 07:29:06;;;;;;;7.78;5.03;;;;;;;7.41;77.17;98357.75;5091651;28;20032;-67
2020/12/13 07:31:36;;;;;;;6.85;5.10;;;;;;;7.40;77.78;98364.03;5091788;28;20048;-68
2020/12/13 07:34:04;;;;;;;7.43;5.03;;;;;;;7.40;77.35;98364.03;5091440;28;20050;-68
2020/12/13 07:36:31;;;;;;;5.60;4.38;;;;;;;7.37;77.30;98367.00;5090241;28;20051;-68
2020/12/13 07:38:58;;;;;;;5.38;4.15;;;;;;;7.38;77.19;98363.38;5090358;28;20067;-68
2020/12/13 07:41:26;;;;;;;4.50;3.88;;;;;;;7.35;76.66;98370.84;5091830;28;20462;-68
2020/12/13 07:43:59;;;;;;;4.75;4.20;;;;;;;7.36;76.53;98375.09;5094973;28;20093;-68
2020/12/13 07:46:27;;;;;;;5.93;3.97;;;;;;;7.35;76.70;98376.91;5094177;28;20044;-68
2020/12/13 07:49:02;;;;;;;3.85;3.22;;;;;;;7.35;76.23;98376.91;5095391;28;20051;-68
2020/12/13 07:51:29;;;;;;;5.55;3.75;;;;;;;7.35;76.42;98376.91;5095372;28;20468;-68
2020/12/13 07:53:56;;;;;;;4.80;3.70;;;;;;;7.34;76.19;98383.16;5094905;28;20040;-68
2020/12/13 07:56:25;;;;;;;7.35;3.67;;;;;;;7.33;76.26;98375.47;5095265;28;20068;-69
2020/12/13 07:59:07;;;;;;;4.72;3.95;;;;;;;7.34;76.19;98385.78;5095039;28;20040;-68
2020/12/13 08:01:34;;;;;;;5.10;3.60;;;;;;;7.36;75.98;98385.63;5095248;28;20067;-68
2020/12/13 08:04:01;;;;;;;6.25;4.75;;;;;;;7.38;76.07;98384.41;5094699;28;20040;-68
2020/12/13 08:06:27;;;;;;;7.38;4.32;;;;;;;7.36;76.04;98383.00;5095158;28;20063;-68
2020/12/13 08:08:54;;;;;;;7.50;5.20;;;;;;;7.38;76.33;98389.69;5095482;28;20056;-68
2020/12/13 08:11:21;;;;;;;5.38;4.10;;;;;;;7.39;76.12;98393.97;5094637;28;20443;-68
2020/12/13 08:13:50;;;;;;;6.57;4.60;;;;;;;7.37;76.08;98392.50;5097573;28;20048;-69
2020/12/13 08:16:18;;;;;;;7.60;5.00;;;;;;;7.47;76.19;98403.56;5098873;28;20043;-69
2020/12/13 08:18:48;;;;;;;9.38;5.00;;;;;;;7.52;75.97;98408.28;5099010;28;20036;-69
2020/12/13 08:21:21;;;;;;;7.72;4.80;;;;;;;7.54;76.11;98406.28;5095551;28;20048;-69
2020/12/13 08:23:49;;;;;;;7.43;4.72;;;;;;;7.57;75.97;98417.25;5095121;28;20063;-69
2020/12/13 08:26:18;;;;;;;6.78;5.50;;;;;;;7.63;75.72;98418.31;5095062;28;20516;-68
2020/12/13 08:28:48;;;;;;;8.55;5.18;;;;;;;7.70;75.81;98417.41;5095769;28;20040;-69
2020/12/13 08:31:21;;;;;;;8.50;5.00;;;;;;;7.70;75.52;98420.03;5095307;28;20075;-68
2020/12/13 08:33:48;;;;;;;7.28;5.68;;;;;;;7.72;75.86;98425.13;5093331;28;20052;-69
2020/12/13 08:36:19;;;;;;;9.57;5.75;;;;;;;7.71;75.75;98426.13;5093505;28;20052;-67
2020/12/13 08:38:59;;;;;;;8.30;5.32;;;;;;;7.72;75.93;98427.78;5093201;28;20058;-67
2020/12/13 08:41:26;;;;;;;8.75;5.75;;;;;;;7.77;75.85;98427.22;5094774;28;20040;-68
2020/12/13 08:43:53;;;;;;;11.25;6.30;;;;;;;7.80;75.76;98434.75;5094245;28;20048;-68
2020/12/13 08:46:41;;;;;;;10.82;6.05;;;;;;;7.81;76.00;98444.28;5093314;28;20502;-68
2020/12/13 08:49:09;;;;;;;12.05;6.32;;;;;;;7.86;76.11;98436.63;5094521;28;20412;-70
2020/12/13 08:51:36;;;;;;;8.57;6.03;;;;;;;7.87;75.67;98441.69;5094270;28;20051;-70
2020/12/13 08:54:05;;;;;;;7.28;5.90;;;;;;;7.98;75.66;98447.50;5093822;28;20036;-68
2020/12/13 08:56:33;;;;;;;10.60;6.70;;;;;;;8.00;75.39;98448.97;5094705;28;20071;-67
2020/12/13 08:59:01;;;;;;;9.43;5.65;;;;;;;8.04;75.40;98455.50;5094341;28;20047;-69
2020/12/13 09:01:34;;;;;;;11.45;5.20;;;;;;;7.99;74.79;98460.47;5093983;28;20044;-67
2020/12/13 09:04:16;;;;;;;6.72;5.45;;;;;;;7.91;74.96;98453.50;5093525;28;20043;-67
2020/12/13 09:06:52;;;;;;;10.30;5.97;;;;;;;7.92;75.01;98456.97;5092720;28;20062;-67
2020/12/13 09:09:19;;;;;;;8.88;6.35;;;;;;;7.96;75.08;98460.88;5093978;28;20079;-67
2020/12/13 09:11:46;;;;;;;12.68;7.68;;;;;;;7.96;74.80;98460.88;5093848;28;20118;-67
2020/12/13 09:14:23;;;;;;;9.30;6.38;;;;;;;7.98;75.00;98469.38;5092033;28;20126;-68
2020/12/13 09:16:50;;;;;;;10.52;6.47;;;;;;;7.94;74.97;98474.19;5092467;28;20056;-68
2020/12/13 09:19:18;;;;;;;7.60;5.50;;;;;;;8.04;74.93;98480.97;5093545;28;20494;-68
2020/12/13 09:21:47;;;;;;;9.63;5.63;;;;;;;7.99;74.75;98480.72;5093588;28;20483;-68
2020/12/13 09:24:14;;;;;;;9.00;5.97;;;;;;;8.08;74.75;98484.88;5093127;28;20044;-67
2020/12/13 09:26:42;;;;;;;7.75;4.80;;;;;;;8.09;74.47;98494.44;5092052;28;20076;-68
2020/12/13 09:29:08;;;;;;;8.05;5.63;;;;;;;8.06;74.28;98500.88;5092181;28;20055;-68
2020/12/13 09:31:35;;;;;;;6.97;5.97;;;;;;;8.09;74.29;98504.97;5093483;28;20042;-68
2020/12/13 09:34:02;;;;;;;9.82;6.07;;;;;;;8.06;73.97;98513.22;5091656;28;20047;-67
2020/12/13 09:36:30;;;;;;;8.75;5.85;;;;;;;7.98;74.40;98505.41;5093379;28;20154;-69
2020/12/13 09:39:01;;;;;;;10.80;5.65;;;;;;;8.10;74.49;98519.75;5093326;28;20101;-68
2020/12/13 09:41:27;;;;;;;8.70;6.63;;;;;;;8.17;74.32;98520.66;5093104;28;20040;-68
2020/12/13 09:43:54;;;;;;;10.32;6.85;;;;;;;8.19;74.36;98518.63;5091417;28;20084;-68
2020/12/13 09:46:21;;;;;;;13.95;7.32;;;;;;;8.28;74.27;98519.34;5093061;28;20405;-68
2020/12/13 09:48:48;;;;;;;13.15;6.97;;;;;;;8.35;74.17;98531.59;5091959;28;20086;-68
2020/12/13 09:51:18;;;;;;;12.00;6.78;;;;;;;8.36;73.87;98522.69;5093146;28;20444;-68
2020/12/13 09:53:46;;;;;;;8.38;6.68;;;;;;;8.40;73.64;98523.16;5093135;28;20139;-68
2020/12/13 09:56:17;;;;;;;5.82;4.88;;;;;;;8.27;73.49;98531.69;5093514;28;20051;-68
2020/12/13 09:58:44;;;;;;;7.95;5.40;;;;;;;8.26;73.65;98531.91;5094505;28;20131;-69
2020/12/13 10:01:12;;;;;;;8.18;5.57;;;;;;;8.19;73.33;98534.44;5094377;28;20067;-68
2020/12/13 10:03:41;;;;;;;11.02;5.60;;;;;;;8.16;73.80;98540.06;5093476;28;20051;-67
2020/12/13 10:06:27;;;;;;;10.65;6.15;;;;;;;8.21;73.68;98540.34;5092624;28;20058;-67
2020/12/13 10:09:07;;;;;;;10.45;6.10;;;;;;;8.24;73.62;98542.59;5095687;28;20044;-68
2020/12/13 10:11:35;;;;;;;11.50;6.13;;;;;;;8.28;73.31;98538.59;5095123;28;20130;-67
2020/12/13 10:14:02;;;;;;;7.47;5.57;;;;;;;8.20;73.28;98538.69;5093885;28;20516;-67
2020/12/13 10:16:28;;;;;;;10.07;6.18;;;;;;;8.21;73.04;98544.81;5094603;28;20054;-68
2020/12/13 10:18:56;;;;;;;11.23;6.03;;;;;;;8.21;73.29;98544.81;5096143;28;20055;-67
2020/12/13 10:21:24;;;;;;;10.52;6.60;;;;;;;8.30;73.04;98539.25;5099235;28;20055;-67
2020/12/13 10:23:51;;;;;;;11.15;6.10;;;;;;;8.33;72.70;98528.34;5098736;28;20055;-67
2020/12/13 10:26:22;;;;;;;14.13;6.65;;;;;;;8.38;72.44;98536.53;5099603;28;20048;-67
2020/12/13 10:28:49;;;;;;;13.35;6.35;;;;;;;8.35;72.37;98533.41;5099781;28;20568;-67
2020/12/13 10:31:16;;;;;;;13.93;6.13;;;;;;;8.34;72.49;98534.44;5098861;28;20485;-67
2020/12/13 10:33:43;;;;;;;12.68;5.80;;;;;;;8.34;72.63;98534.44;5096909;28;20107;-67
2020/12/13 10:36:11;;;;;;;10.95;5.90;;;;;;;8.39;72.65;98526.81;5098288;28;20489;-67
2020/12/13 10:38:39;;;;;;;13.35;5.70;;;;;;;8.41;72.39;98528.28;5099134;28;20105;-67
2020/12/13 10:41:06;;;;;;;17.95;6.78;;;;;;;8.45;71.93;98528.72;5097306;28;20055;-67
2020/12/13 10:43:35;;;;;;;22.80;6.97;;;;;;;8.48;72.12;98530.16;5097333;28;20040;-69
2020/12/13 10:46:03;;;;;;;15.27;6.97;;;;;;;8.53;71.95;98531.25;5097858;28;20051;-69
2020/12/13 10:48:30;;;;;;;9.98;5.90;;;;;;;8.63;72.29;98523.84;5096223;28;20048;-69
2020/12/13 10:50:57;;;;;;;10.95;5.43;;;;;;;8.69;72.10;98527.53;5098201;28;20066;-70
2020/12/13 10:53:24;;;;;;;9.45;5.47;;;;;;;8.70;71.67;98531.00;5096195;28;20048;-68
2020/12/13 10:55:52;;;;;;;9.68;5.20;;;;;;;8.73;71.47;98520.88;5092721;28;20111;-68
2020/12/13 10:58:19;;;;;;;17.00;6.38;;;;;;;8.90;71.66;98527.56;5093382;28;20059;-68
2020/12/13 11:00:47;;;;;;;8.82;5.60;;;;;;;9.13;71.25;98519.44;5092688;28;20102;-69
2020/12/13 11:03:14;;;;;;;9.55;5.22;;;;;;;9.33;70.71;98511.69;5093191;28;20490;-68
2020/12/13 11:05:42;;;;;;;12.35;5.20;;;;;;;9.46;70.66;98515.44;5093308;28;20047;-69
2020/12/13 11:08:09;;;;;;;9.05;4.70;;;;;;;9.46;69.90;98510.16;5094590;28;20059;-68
2020/12/13 11:10:36;;;;;;;7.47;4.28;;;;;;;9.40;68.92;98509.09;5093335;28;20445;-69
2020/12/13 11:13:03;;;;;;;9.60;4.18;;;;;;;9.39;68.36;98505.66;5093950;28;20044;-68
2020/12/13 11:15:30;;;;;;;9.15;4.63;;;;;;;9.52;68.66;98504.13;5093990;28;20505;-69
2020/12/13 11:17:58;;;;;;;10.77;4.93;;;;;;;9.38;68.46;98506.66;5098505;28;20048;-68
2020/12/13 11:20:26;;;;;;;8.05;4.80;;;;;;;9.37;68.01;98510.28;5097762;28;20059;-69
2020/12/13 11:22:52;;;;;;;11.02;5.00;;;;;;;9.33;67.93;98506.41;5097959;28;20111;-68
2020/12/13 11:25:19;;;;;;;8.00;4.88;;;;;;;9.57;67.16;98514.91;5095789;28;20143;-69
2020/12/13 11:27:46;;;;;;;11.57;5.85;;;;;;;9.84;66.26;98507.97;5096035;28;20055;-68
2020/12/13 11:30:12;;;;;;;9.38;5.28;;;;;;;9.90;65.90;98504.53;5098573;28;20044;-68
2020/12/13 11:32:43;;;;;;;7.70;4.60;;;;;;;10.09;65.97;98509.09;5098655;28;20044;-68
2020/12/13 11:35:13;;;;;;;7.43;3.20;;;;;;;10.13;65.07;98505.06;5097322;28;20055;-68
2020/12/13 11:37:40;;;;;;;4.85;3.13;;;;;;;10.12;64.53;98510.53;5095841;28;20055;-68
2020/12/13 11:40:07;;;;;;;7.28;4.35;;;;;;;10.22;64.58;98502.25;5096324;28;20055;-68
2020/12/13 11:42:34;;;;;;;7.00;3.95;;;;;;;10.15;64.56;98510.13;5107169;28;20521;-68
2020/12/13 11:45:02;;;;;;;7.18;3.65;;;;;;;9.99;63.91;98508.63;5104169;28;20048;-68
2020/12/13 11:47:29;;;;;;;6.13;3.65;;;;;;;9.65;64.61;98518.19;5098818;28;20139;-69